createdAt,value
2018-09-10T00:00:22.397Z,18.20
2018-09-10T00:02:50.917Z,18.20
2018-09-10T00:05:19.251Z,18.10
2018-09-10T00:07:47.628Z,18.20
2018-09-10T00:10:15.952Z,18.10
2018-09-10T00:12:44.646Z,18.10
2018-09-10T00:15:13.214Z,18.10
2018-09-10T00:17:41.622Z,18.10
2018-09-10T00:20:09.944Z,18.10
2018-09-10T00:22:38.479Z,18.10
2018-09-10T00:25:07.078Z,18.10
2018-09-10T00:27:35.533Z,18.10
2018-09-10T00:30:04.161Z,18.10
2018-09-10T00:32:32.437Z,18.10
2018-09-10T00:35:00.760Z,18.10
2018-09-10T00:37:29.096Z,18.10
2018-09-10T00:39:57.396Z,18.00
2018-09-10T00:42:25.706Z,18.00
2018-09-10T00:44:53.986Z,18.00
2018-09-10T00:47:22.326Z,18.00
2018-09-10T00:49:50.787Z,18.00
2018-09-10T00:52:19.094Z,17.90
2018-09-10T00:54:47.497Z,17.90
2018-09-10T00:57:15.797Z,17.90
2018-09-10T00:59:44.102Z,17.90
2018-09-10T01:02:12.456Z,17.90
2018-09-10T01:04:44.161Z,17.90
2018-09-10T01:07:12.497Z,17.80
2018-09-10T01:09:40.799Z,17.80
2018-09-10T01:12:09.076Z,17.80
2018-09-10T01:14:37.924Z,17.80
2018-09-10T01:17:06.312Z,17.80
2018-09-10T01:19:34.620Z,17.80
2018-09-10T01:22:03.026Z,17.80
2018-09-10T01:24:31.431Z,17.80
2018-09-10T01:26:59.691Z,17.80
2018-09-10T01:29:28.054Z,17.80
2018-09-10T01:31:56.406Z,17.80
2018-09-10T01:34:30.146Z,17.80
2018-09-10T01:36:58.437Z,17.80
2018-09-10T01:39:26.691Z,17.80
2018-09-10T01:41:54.951Z,17.80
2018-09-10T01:44:24.447Z,17.80
2018-09-10T01:46:52.813Z,17.80
2018-09-10T01:49:21.169Z,17.80
2018-09-10T01:51:49.503Z,17.80
2018-09-10T01:54:17.904Z,17.80
2018-09-10T01:56:46.160Z,17.80
2018-09-10T01:59:14.471Z,17.80
2018-09-10T02:01:42.732Z,17.80
2018-09-10T02:04:11.301Z,17.80
2018-09-10T02:06:39.679Z,17.80
2018-09-10T02:09:08.706Z,17.80
2018-09-10T02:11:37.102Z,17.80
2018-09-10T02:14:05.764Z,17.80
2018-09-10T02:16:34.031Z,17.80
2018-09-10T02:19:02.285Z,17.80
2018-09-10T02:21:30.644Z,17.80
2018-09-10T02:23:59.132Z,17.80
2018-09-10T02:26:27.526Z,17.80
2018-09-10T02:28:57.605Z,17.80
2018-09-10T02:31:25.887Z,17.80
2018-09-10T02:33:54.246Z,17.80
2018-09-10T02:36:22.515Z,17.80
2018-09-10T02:38:50.821Z,17.80
2018-09-10T02:41:19.167Z,17.80
2018-09-10T02:43:48.521Z,17.70
2018-09-10T02:46:16.756Z,17.80
2018-09-10T02:48:45.100Z,17.80
2018-09-10T02:51:13.406Z,17.80
2018-09-10T02:53:41.927Z,17.80
2018-09-10T02:56:10.295Z,17.80
2018-09-10T02:58:39.160Z,17.80
2018-09-10T03:01:07.463Z,17.80
2018-09-10T03:03:36.914Z,17.80
2018-09-10T03:06:05.141Z,17.80
2018-09-10T03:08:33.410Z,17.80
2018-09-10T03:11:01.676Z,17.80
2018-09-10T03:13:30.066Z,17.80
2018-09-10T03:15:58.363Z,17.80
2018-09-10T03:18:26.678Z,17.70
2018-09-10T03:20:54.976Z,17.70
2018-09-10T03:23:23.389Z,17.80
2018-09-10T03:25:51.867Z,17.80
2018-09-10T03:28:20.156Z,17.80
2018-09-10T03:30:48.473Z,17.80
2018-09-10T03:33:17.812Z,17.80
2018-09-10T03:35:46.103Z,17.80
2018-09-10T03:38:14.432Z,17.80
2018-09-10T03:40:42.787Z,17.80
2018-09-10T03:43:11.263Z,17.80
2018-09-10T03:45:39.640Z,17.80
2018-09-10T03:48:08.570Z,17.80
2018-09-10T03:50:36.914Z,17.80
2018-09-10T03:53:05.371Z,17.80
2018-09-10T03:55:33.618Z,17.80
2018-09-10T03:58:01.874Z,17.80
2018-09-10T04:00:30.206Z,17.80
2018-09-10T04:03:02.252Z,17.70
2018-09-10T04:05:30.539Z,17.70
2018-09-10T04:07:58.920Z,17.70
2018-09-10T04:10:27.333Z,17.70
2018-09-10T04:12:57.695Z,17.70
2018-09-10T04:15:26.929Z,17.70
2018-09-10T04:17:55.229Z,17.70
2018-09-10T04:20:23.529Z,17.70
2018-09-10T04:22:53.065Z,17.70
2018-09-10T04:25:21.287Z,17.70
2018-09-10T04:27:49.617Z,17.70
2018-09-10T04:30:17.913Z,17.70
2018-09-10T04:32:46.434Z,17.70
2018-09-10T04:35:14.707Z,17.70
2018-09-10T04:37:43.004Z,17.70
2018-09-10T04:40:11.363Z,17.60
2018-09-10T04:42:39.618Z,17.60
2018-09-10T04:45:07.912Z,17.60
2018-09-10T04:47:36.248Z,17.60
2018-09-10T04:50:05.312Z,17.60
2018-09-10T04:52:34.232Z,17.60
2018-09-10T04:55:02.511Z,17.60
2018-09-10T04:57:31.997Z,17.50
2018-09-10T05:00:00.278Z,17.50
2018-09-10T05:02:29.374Z,17.50
2018-09-10T05:04:57.620Z,17.40
2018-09-10T05:07:25.966Z,17.40
2018-09-10T05:09:54.369Z,17.30
2018-09-10T05:12:22.695Z,17.30
2018-09-10T05:14:51.140Z,17.20
2018-09-10T05:17:19.466Z,17.20
2018-09-10T05:19:47.807Z,17.10
2018-09-10T05:22:16.076Z,17.10
2018-09-10T05:24:44.471Z,17.10
2018-09-10T05:27:12.731Z,17.00
2018-09-10T05:29:41.080Z,17.00
2018-09-10T05:32:09.490Z,16.90
2018-09-10T05:34:38.029Z,16.90
2018-09-10T05:37:06.334Z,16.80
2018-09-10T05:39:34.627Z,16.80
2018-09-10T05:42:02.923Z,16.80
2018-09-10T05:44:31.282Z,16.70
2018-09-10T05:46:59.625Z,16.70
2018-09-10T05:49:27.934Z,16.70
2018-09-10T05:51:56.336Z,16.70
2018-09-10T05:54:24.820Z,16.70
2018-09-10T05:56:53.160Z,16.80
2018-09-10T05:59:21.530Z,16.80
2018-09-10T06:01:49.784Z,16.90
2018-09-10T06:04:18.157Z,16.90
2018-09-10T06:06:46.483Z,17.00
2018-09-10T06:09:14.814Z,17.10
2018-09-10T06:11:44.041Z,17.10
2018-09-10T06:14:13.582Z,17.20
2018-09-10T06:16:41.989Z,17.20
2018-09-10T06:19:10.319Z,17.30
2018-09-10T06:21:38.675Z,17.30
2018-09-10T06:24:07.205Z,17.30
2018-09-10T06:26:35.574Z,17.30
2018-09-10T06:29:04.325Z,17.40
2018-09-10T06:31:32.863Z,17.40
2018-09-10T06:34:02.209Z,17.40
2018-09-10T06:36:30.473Z,17.50
2018-09-10T06:38:58.790Z,17.50
2018-09-10T06:41:27.059Z,17.70
2018-09-10T06:43:55.450Z,17.70
2018-09-10T06:46:23.795Z,17.80
2018-09-10T06:48:52.118Z,17.90
2018-09-10T06:51:20.410Z,17.90
2018-09-10T06:56:23.657Z,18.00
2018-09-10T06:58:52.019Z,18.10
2018-09-10T07:01:20.370Z,18.10
2018-09-10T07:03:48.813Z,18.10
2018-09-10T07:06:17.129Z,18.10
2018-09-10T07:08:45.457Z,18.10
2018-09-10T07:11:13.849Z,18.20
2018-09-10T07:13:43.336Z,18.10
2018-09-10T07:16:11.635Z,18.10
2018-09-10T07:18:39.951Z,18.20
2018-09-10T07:21:08.160Z,18.10
2018-09-10T07:23:36.794Z,18.10
2018-09-10T07:26:05.095Z,18.10
2018-09-10T07:28:33.398Z,18.20
2018-09-10T07:31:01.717Z,18.20
2018-09-10T07:33:30.258Z,18.30
2018-09-10T07:35:58.688Z,18.30
2018-09-10T07:38:26.991Z,18.30
2018-09-10T07:40:55.293Z,18.30
2018-09-10T07:43:24.603Z,18.40
2018-09-10T07:45:52.997Z,18.40
2018-09-10T07:48:21.490Z,18.40
2018-09-10T07:50:49.808Z,18.40
2018-09-10T07:53:18.214Z,18.40
2018-09-10T07:55:46.465Z,18.40
2018-09-10T07:58:14.793Z,18.50
2018-09-10T08:00:43.121Z,18.50
2018-09-10T08:03:12.268Z,18.40
2018-09-10T08:05:40.731Z,18.40
2018-09-10T08:08:09.063Z,18.50
2018-09-10T08:13:19.861Z,18.40
2018-09-10T08:15:48.238Z,18.40
2018-09-10T08:18:16.554Z,18.40
2018-09-10T08:20:44.938Z,18.40
2018-09-10T08:23:13.571Z,18.40
2018-09-10T08:25:41.952Z,18.40
2018-09-10T08:28:10.316Z,18.50
2018-09-10T08:30:38.707Z,18.50
2018-09-10T08:33:07.301Z,18.50
2018-09-10T08:35:35.625Z,18.50
2018-09-10T08:38:03.971Z,18.50
2018-09-10T08:40:33.294Z,18.50
2018-09-10T08:43:02.224Z,18.50
2018-09-10T08:45:30.720Z,18.50
2018-09-10T08:47:59.131Z,18.50
2018-09-10T08:50:27.553Z,18.50
2018-09-10T08:52:56.148Z,18.50
2018-09-10T08:55:24.660Z,18.60
2018-09-10T08:57:53.118Z,18.60
2018-09-10T09:00:21.473Z,18.70
2018-09-10T09:02:50.137Z,18.70
2018-09-10T09:05:18.492Z,18.70
2018-09-10T09:07:47.002Z,18.70
2018-09-10T09:10:15.384Z,18.70
2018-09-10T09:12:44.124Z,18.60
2018-09-10T09:15:12.416Z,18.70
2018-09-10T09:17:40.749Z,18.60
2018-09-10T09:20:09.394Z,18.70
2018-09-10T09:22:37.810Z,18.60
2018-09-10T09:25:06.116Z,18.70
2018-09-10T09:27:34.438Z,18.70
2018-09-10T09:30:02.873Z,18.60
2018-09-10T09:32:31.320Z,18.60
2018-09-10T09:34:59.904Z,18.60
2018-09-10T09:37:33.549Z,18.60
2018-09-10T09:40:07.264Z,18.60
2018-09-10T09:42:41.046Z,18.70
2018-09-10T09:45:14.714Z,18.60
2018-09-10T09:47:42.992Z,18.60
2018-09-10T09:50:11.363Z,18.70
2018-09-10T09:52:39.922Z,18.70
2018-09-10T09:55:08.270Z,18.70
2018-09-10T09:57:36.488Z,18.70
2018-09-10T10:00:05.140Z,18.70
2018-09-10T10:02:38.907Z,18.70
2018-09-10T10:05:07.189Z,18.70
2018-09-10T10:07:35.471Z,18.80
2018-09-10T10:10:03.929Z,18.80
2018-09-10T10:12:32.600Z,18.80
2018-09-10T10:15:00.921Z,18.80
2018-09-10T10:17:29.344Z,18.90
2018-09-10T10:20:04.053Z,18.90
2018-09-10T10:22:32.413Z,19.00
2018-09-10T10:25:00.749Z,19.00
2018-09-10T10:27:29.079Z,19.10
2018-09-10T10:29:57.355Z,19.10
2018-09-10T10:32:25.675Z,19.10
2018-09-10T10:34:54.061Z,19.10
2018-09-10T10:37:22.576Z,19.10
2018-09-10T10:39:50.933Z,19.10
2018-09-10T10:42:19.252Z,19.10
2018-09-10T10:44:47.542Z,19.20
2018-09-10T10:47:15.915Z,19.20
2018-09-10T10:49:44.246Z,19.10
2018-09-10T10:52:12.605Z,19.20
2018-09-10T10:54:41.081Z,19.10
2018-09-10T10:57:09.433Z,19.10
2018-09-10T10:59:37.790Z,19.10
2018-09-10T11:02:06.225Z,19.10
2018-09-10T11:04:34.598Z,19.00
2018-09-10T11:07:02.900Z,18.90
2018-09-10T11:09:31.198Z,18.90
2018-09-10T11:11:59.515Z,18.90
2018-09-10T11:14:27.906Z,18.70
2018-09-10T11:16:56.319Z,18.70
2018-09-10T11:19:24.642Z,18.70
2018-09-10T11:21:52.975Z,18.70
2018-09-10T11:24:21.450Z,18.70
2018-09-10T11:26:49.727Z,18.70
2018-09-10T11:29:18.003Z,18.70
2018-09-10T11:31:46.271Z,18.80
2018-09-10T11:34:14.648Z,18.90
2018-09-10T11:36:42.940Z,18.80
2018-09-10T11:39:11.180Z,18.80
2018-09-10T11:44:14.553Z,18.80
2018-09-10T11:46:42.972Z,18.90
2018-09-10T11:49:11.251Z,19.00
2018-09-10T11:51:39.477Z,18.90
2018-09-10T11:54:07.861Z,18.90
2018-09-10T11:56:36.128Z,18.90
2018-09-10T11:59:04.384Z,18.90
2018-09-10T12:01:32.690Z,19.00
2018-09-10T12:04:01.163Z,19.10
2018-09-10T12:06:29.467Z,19.10
2018-09-10T12:08:57.743Z,19.10
2018-09-10T12:11:26.003Z,19.10
2018-09-10T12:13:56.283Z,19.00
2018-09-10T12:16:24.604Z,19.00
2018-09-10T12:18:52.956Z,19.00
2018-09-10T12:21:21.403Z,19.10
2018-09-10T12:23:49.852Z,19.10
2018-09-10T12:26:18.117Z,19.10
2018-09-10T12:28:46.435Z,19.10
2018-09-10T12:31:14.713Z,19.10
2018-09-10T12:33:43.483Z,19.10
2018-09-10T12:36:12.007Z,19.10
2018-09-10T12:38:40.263Z,19.20
2018-09-10T12:41:08.939Z,19.20
2018-09-10T12:43:37.295Z,19.20
2018-09-10T12:46:05.777Z,19.20
2018-09-10T12:48:34.139Z,19.20
2018-09-10T12:51:03.351Z,19.20
2018-09-10T12:53:32.687Z,19.30
2018-09-10T12:56:01.093Z,19.30
2018-09-10T13:01:23.516Z,19.30
2018-09-10T13:03:52.794Z,19.30
2018-09-10T13:06:21.822Z,19.30
2018-09-10T13:08:50.365Z,19.40
2018-09-10T13:11:18.744Z,19.40
2018-09-10T13:13:47.537Z,19.40
2018-09-10T13:16:15.874Z,19.40
2018-09-10T13:18:44.357Z,19.50
2018-09-10T13:21:12.673Z,19.50
2018-09-10T13:23:41.195Z,19.60
2018-09-10T13:26:09.855Z,19.50
2018-09-10T13:28:38.360Z,19.40
2018-09-10T13:31:06.825Z,19.50
2018-09-10T13:33:35.378Z,19.40
2018-09-10T13:36:03.752Z,19.30
2018-09-10T13:38:32.257Z,19.30
2018-09-10T13:41:00.674Z,19.30
2018-09-10T13:43:29.052Z,19.30
2018-09-10T13:45:57.360Z,19.30
2018-09-10T13:48:25.688Z,19.30
2018-09-10T13:50:54.035Z,19.20
2018-09-10T13:53:22.481Z,19.20
2018-09-10T13:55:51.058Z,19.10
2018-09-10T13:58:19.526Z,19.10
2018-09-10T14:00:47.897Z,19.20
2018-09-10T14:03:16.279Z,19.20
2018-09-10T14:05:44.533Z,19.20
2018-09-10T14:08:12.965Z,19.20
2018-09-10T14:10:41.368Z,19.20
2018-09-10T14:13:09.805Z,19.20
2018-09-10T14:15:38.241Z,19.20
2018-09-10T14:18:06.630Z,19.20
2018-09-10T14:20:35.616Z,19.20
2018-09-10T14:23:04.098Z,19.20
2018-09-10T14:25:32.371Z,19.20
2018-09-10T14:28:00.646Z,19.00
2018-09-10T14:30:28.990Z,19.00
2018-09-10T14:32:57.342Z,19.00
2018-09-10T14:35:26.090Z,19.00
2018-09-10T14:37:54.459Z,19.00
2018-09-10T14:40:22.758Z,19.00
2018-09-10T14:42:51.287Z,19.00
2018-09-10T14:45:19.552Z,18.90
2018-09-10T14:47:47.886Z,18.90
2018-09-10T14:50:16.263Z,19.00
2018-09-10T14:52:45.743Z,19.00
2018-09-10T14:55:13.998Z,19.10
2018-09-10T14:57:42.290Z,19.10
2018-09-10T15:00:14.937Z,19.10
2018-09-10T15:02:43.369Z,19.20
2018-09-10T15:05:12.426Z,19.20
2018-09-10T15:07:41.831Z,19.20
2018-09-10T15:10:11.760Z,19.20
2018-09-10T15:12:40.101Z,19.30
2018-09-10T15:15:08.554Z,19.30
2018-09-10T15:17:36.904Z,19.30
2018-09-10T15:20:05.311Z,19.40
2018-09-10T15:22:33.831Z,19.40
2018-09-10T15:25:02.692Z,19.40
2018-09-10T15:27:31.048Z,19.40
2018-09-10T15:29:59.390Z,19.40
2018-09-10T15:32:27.712Z,19.30
2018-09-10T15:34:56.137Z,19.20
2018-09-10T15:37:24.524Z,19.20
2018-09-10T15:39:52.885Z,19.20
2018-09-10T15:42:21.251Z,19.10
2018-09-10T15:44:49.638Z,19.10
2018-09-10T15:47:18.074Z,19.00
2018-09-10T15:49:46.396Z,19.00
2018-09-10T15:52:14.824Z,19.00
2018-09-10T15:54:43.166Z,18.90
2018-09-10T15:57:11.487Z,18.90
2018-09-10T15:59:39.797Z,18.90
2018-09-10T16:02:08.122Z,18.90
2018-09-10T16:04:37.002Z,18.90
2018-09-10T16:07:05.484Z,18.90
2018-09-10T16:09:33.680Z,18.90
2018-09-10T16:12:01.992Z,18.90
2018-09-10T16:14:30.458Z,18.90
2018-09-10T16:16:58.914Z,18.90
2018-09-10T16:19:27.162Z,18.80
2018-09-10T16:21:55.453Z,18.80
2018-09-10T16:24:23.943Z,18.80
2018-09-10T16:26:52.221Z,18.80
2018-09-10T16:29:20.640Z,18.80
2018-09-10T16:31:48.976Z,18.80
2018-09-10T16:34:17.761Z,18.80
2018-09-10T16:36:46.036Z,18.70
2018-09-10T16:39:14.325Z,18.70
2018-09-10T16:41:42.660Z,18.70
2018-09-10T16:44:11.155Z,18.70
2018-09-10T16:46:39.524Z,18.60
2018-09-10T16:49:07.879Z,18.60
2018-09-10T16:51:36.181Z,18.60
2018-09-10T16:54:04.741Z,18.60
2018-09-10T16:56:33.053Z,18.60
2018-09-10T16:59:01.382Z,18.60
2018-09-10T17:01:29.704Z,18.60
2018-09-10T17:03:59.031Z,18.60
2018-09-10T17:06:27.331Z,18.60
2018-09-10T17:08:56.122Z,18.60
2018-09-10T17:11:24.377Z,18.60
2018-09-10T17:13:52.729Z,18.60
2018-09-10T17:16:21.098Z,18.60
2018-09-10T17:18:49.341Z,18.60
2018-09-10T17:21:17.592Z,18.60
2018-09-10T17:23:45.852Z,18.60
2018-09-10T17:26:14.135Z,18.60
2018-09-10T17:28:42.635Z,18.60
2018-09-10T17:31:10.946Z,18.60
2018-09-10T17:33:39.761Z,18.60
2018-09-10T17:36:08.082Z,18.60
2018-09-10T17:38:36.604Z,18.60
2018-09-10T17:41:04.884Z,18.60
2018-09-10T17:43:33.188Z,18.60
2018-09-10T17:46:01.553Z,18.50
2018-09-10T17:48:30.342Z,18.60
2018-09-10T17:50:58.764Z,18.60
2018-09-10T17:53:27.160Z,18.50
2018-09-10T17:55:55.495Z,18.50
2018-09-10T17:58:23.813Z,18.50
2018-09-10T18:00:52.335Z,18.60
2018-09-10T18:03:20.661Z,18.50
2018-09-10T18:05:49.197Z,18.50
2018-09-10T18:08:17.465Z,18.50
2018-09-10T18:10:45.992Z,18.50
2018-09-10T18:13:14.436Z,18.40
2018-09-10T18:15:42.855Z,18.40
2018-09-10T18:18:11.167Z,18.40
2018-09-10T18:20:40.653Z,18.40
2018-09-10T18:23:09.174Z,18.30
2018-09-10T18:25:37.460Z,18.30
2018-09-10T18:28:05.715Z,18.30
2018-09-10T18:30:34.074Z,18.30
2018-09-10T18:33:03.504Z,18.30
2018-09-10T18:35:31.830Z,18.20
2018-09-10T18:38:00.321Z,18.20
2018-09-10T18:40:28.679Z,18.20
2018-09-10T18:42:57.820Z,18.10
2018-09-10T18:45:26.231Z,18.10
2018-09-10T18:47:54.508Z,18.10
2018-09-10T18:50:22.902Z,18.00
2018-09-10T18:52:52.386Z,18.00
2018-09-10T18:55:20.730Z,18.00
2018-09-10T18:57:49.087Z,17.90
2018-09-10T19:00:17.378Z,17.90
2018-09-10T19:02:46.874Z,17.90
2018-09-10T19:05:15.162Z,17.90
2018-09-10T19:07:43.418Z,17.80
2018-09-10T19:10:11.756Z,17.80
2018-09-10T19:12:40.037Z,17.80
2018-09-10T19:15:08.517Z,17.80
2018-09-10T19:17:36.969Z,17.80
2018-09-10T19:20:05.548Z,17.80
2018-09-10T19:22:33.883Z,17.80
2018-09-10T19:25:02.147Z,17.80
2018-09-10T19:27:30.382Z,17.80
2018-09-10T19:29:58.971Z,17.70
2018-09-10T19:32:27.417Z,17.80
2018-09-10T19:34:55.664Z,17.80
2018-09-10T19:37:23.970Z,17.70
2018-09-10T19:39:52.198Z,17.70
2018-09-10T19:42:21.251Z,17.70
2018-09-10T19:44:49.621Z,17.80
2018-09-10T19:47:17.862Z,17.80
2018-09-10T19:49:46.127Z,17.80
2018-09-10T19:52:14.422Z,17.80
2018-09-10T19:54:42.880Z,17.70
2018-09-10T19:57:11.171Z,17.70
2018-09-10T19:59:39.745Z,17.70
2018-09-10T20:02:07.981Z,17.70
2018-09-10T20:04:36.384Z,17.70
2018-09-10T20:07:04.813Z,17.70
2018-09-10T20:09:33.111Z,17.70
2018-09-10T20:12:01.357Z,17.70
2018-09-10T20:14:29.695Z,17.60
2018-09-10T20:16:57.976Z,17.60
2018-09-10T20:19:26.223Z,17.60
2018-09-10T20:21:54.593Z,17.60
2018-09-10T20:24:28.690Z,17.60
2018-09-10T20:26:56.983Z,17.60
2018-09-10T20:29:25.346Z,17.60
2018-09-10T20:31:53.665Z,17.50
2018-09-10T20:34:22.106Z,17.50
2018-09-10T20:36:50.357Z,17.50
2018-09-10T20:39:18.660Z,17.50
2018-09-10T20:41:46.914Z,17.50
2018-09-10T20:44:15.402Z,17.50
2018-09-10T20:46:43.731Z,17.50
2018-09-10T20:49:12.024Z,17.50
2018-09-10T20:51:40.285Z,17.50
2018-09-10T20:54:08.667Z,17.50
2018-09-10T20:56:36.920Z,17.50
2018-09-10T20:59:05.156Z,17.50
2018-09-10T21:01:33.454Z,17.50
2018-09-10T21:04:01.724Z,17.50
2018-09-10T21:06:30.052Z,17.50
2018-09-10T21:08:58.292Z,17.50
2018-09-10T21:11:27.364Z,17.50
2018-09-10T21:13:55.662Z,17.40
2018-09-10T21:16:23.984Z,17.40
2018-09-10T21:18:52.328Z,17.40
2018-09-10T21:21:20.574Z,17.40
2018-09-10T21:23:49.024Z,17.40
2018-09-10T21:26:17.339Z,17.40
2018-09-10T21:28:45.588Z,17.40
2018-09-10T21:31:14.111Z,17.40
2018-09-10T21:33:42.448Z,17.40
2018-09-10T21:36:10.655Z,17.40
2018-09-10T21:38:38.927Z,17.40
2018-09-10T21:41:07.204Z,17.40
2018-09-10T21:43:35.601Z,17.40
2018-09-10T21:46:03.863Z,17.40
2018-09-10T21:48:32.167Z,17.40
2018-09-10T21:51:00.473Z,17.40
2018-09-10T21:53:28.870Z,17.30
2018-09-10T21:55:57.106Z,17.20
2018-09-10T21:58:25.375Z,17.20
2018-09-10T22:00:53.670Z,17.20
2018-09-10T22:03:21.928Z,17.20
2018-09-10T22:05:50.262Z,17.20
2018-09-10T22:08:18.532Z,17.20
2018-09-10T22:10:46.792Z,17.20
2018-09-10T22:13:15.135Z,17.20
2018-09-10T22:15:43.582Z,17.20
2018-09-10T22:18:12.796Z,17.10
2018-09-10T22:20:41.095Z,17.10
2018-09-10T22:23:09.606Z,17.10
2018-09-10T22:25:44.560Z,17.10
2018-09-10T22:28:12.849Z,17.10
2018-09-10T22:30:41.080Z,17.10
2018-09-10T22:33:11.617Z,17.10
2018-09-10T22:35:39.922Z,17.10
2018-09-10T22:38:08.209Z,17.10
2018-09-10T22:40:36.458Z,17.00
2018-09-10T22:43:04.701Z,17.00
2018-09-10T22:45:32.965Z,17.00
2018-09-10T22:48:01.249Z,17.00
2018-09-10T22:50:29.536Z,17.00
2018-09-10T22:52:57.958Z,17.00
2018-09-10T22:55:26.273Z,17.00
2018-09-10T22:57:54.545Z,17.00
2018-09-10T23:00:22.849Z,17.00
2018-09-10T23:02:51.275Z,17.00
2018-09-10T23:05:19.735Z,17.00
2018-09-10T23:07:48.006Z,16.90
2018-09-10T23:10:16.247Z,16.90
2018-09-10T23:12:45.121Z,16.90
2018-09-10T23:15:14.271Z,16.90
2018-09-10T23:17:42.496Z,16.90
2018-09-10T23:20:10.747Z,16.90
2018-09-10T23:22:39.107Z,16.90
2018-09-10T23:25:07.415Z,16.90
2018-09-10T23:27:35.687Z,16.90
2018-09-10T23:30:03.947Z,16.80
2018-09-10T23:32:32.240Z,16.80
2018-09-10T23:35:00.503Z,16.80
2018-09-10T23:37:28.768Z,16.80
2018-09-10T23:39:57.027Z,16.70
2018-09-10T23:42:25.296Z,16.70
2018-09-10T23:44:53.559Z,16.70
2018-09-10T23:47:21.797Z,16.70
2018-09-10T23:49:50.034Z,16.70
2018-09-10T23:52:18.285Z,16.70
2018-09-10T23:54:46.509Z,16.70
2018-09-10T23:57:14.732Z,16.60
2018-09-10T23:59:42.998Z,16.60
